createdAt,value
2022-12-25T00:01:27.783Z,98.33
2022-12-25T00:03:29.815Z,98.44
2022-12-25T00:05:32.023Z,98.55
2022-12-25T00:07:33.630Z,98.86
2022-12-25T00:09:35.202Z,98.43
2022-12-25T00:11:37.370Z,98.36
2022-12-25T00:13:39.223Z,98.47
2022-12-25T00:15:41.564Z,98.43
2022-12-25T00:17:43.328Z,98.45
2022-12-25T00:19:44.911Z,98.51
2022-12-25T00:21:46.848Z,98.61
2022-12-25T00:23:54.527Z,98.69
2022-12-25T00:25:56.790Z,98.71
2022-12-25T00:27:58.446Z,98.60
2022-12-25T00:30:01.858Z,98.45
2022-12-25T00:32:03.593Z,98.04
2022-12-25T00:34:05.145Z,97.89
2022-12-25T00:36:08.376Z,97.28
2022-12-25T00:38:10.552Z,97.18
2022-12-25T00:40:12.649Z,97.29
2022-12-25T00:42:20.744Z,97.70
2022-12-25T00:44:22.433Z,97.77
2022-12-25T00:46:24.205Z,97.69
2022-12-25T00:48:27.113Z,97.84
2022-12-25T00:50:28.811Z,98.66
2022-12-25T00:52:30.480Z,98.79
2022-12-25T00:54:32.317Z,99.20
2022-12-25T00:56:34.275Z,99.26
2022-12-25T00:58:36.282Z,99.58
2022-12-25T01:00:39.499Z,100.00
2022-12-25T01:02:41.469Z,100.00
2022-12-25T01:04:43.176Z,100.00
2022-12-25T01:06:44.768Z,99.81
2022-12-25T01:09:04.948Z,99.75
2022-12-25T01:11:09.019Z,99.99
2022-12-25T01:13:10.801Z,100.00
2022-12-25T01:15:13.125Z,100.00
2022-12-25T01:17:14.821Z,100.00
2022-12-25T01:19:16.335Z,100.00
2022-12-25T01:21:22.012Z,99.73
2022-12-25T01:23:23.703Z,99.70
2022-12-25T01:25:25.639Z,99.15
2022-12-25T01:27:27.470Z,98.71
2022-12-25T01:29:29.095Z,99.03
2022-12-25T01:31:31.083Z,98.71
2022-12-25T01:33:32.984Z,98.68
2022-12-25T01:35:34.704Z,98.56
2022-12-25T01:37:36.321Z,98.20
2022-12-25T01:39:39.007Z,98.05
2022-12-25T01:41:40.599Z,98.63
2022-12-25T01:43:59.773Z,97.83
2022-12-25T01:46:04.156Z,98.02
2022-12-25T01:48:09.949Z,98.45
2022-12-25T01:50:11.712Z,98.49
2022-12-25T01:52:23.502Z,98.70
2022-12-25T01:54:30.177Z,98.95
2022-12-25T01:56:33.609Z,99.29
2022-12-25T01:58:36.453Z,98.93
2022-12-25T02:00:40.688Z,99.65
2022-12-25T02:02:44.390Z,99.19
2022-12-25T02:04:54.562Z,99.31
2022-12-25T02:06:56.956Z,99.54
2022-12-25T02:08:59.181Z,100.00
2022-12-25T02:11:00.707Z,99.59
2022-12-25T02:13:06.885Z,99.37
2022-12-25T02:15:18.576Z,99.35
2022-12-25T02:17:35.331Z,99.36
2022-12-25T02:20:17.979Z,99.79
2022-12-25T02:22:34.486Z,99.87
2022-12-25T02:24:54.154Z,99.74
2022-12-25T02:27:07.116Z,99.92
2022-12-25T02:29:15.808Z,99.71
2022-12-25T02:31:28.900Z,100.00
2022-12-25T02:34:03.295Z,100.00
2022-12-25T02:36:11.341Z,100.00
2022-12-25T02:38:25.008Z,100.00
2022-12-25T02:40:31.889Z,100.00
2022-12-25T02:43:01.697Z,99.74
2022-12-25T02:45:22.607Z,99.83
2022-12-25T02:47:44.476Z,100.00
2022-12-25T02:50:06.013Z,100.00
2022-12-25T02:52:31.650Z,100.00
2022-12-25T02:55:00.584Z,100.00
2022-12-25T02:57:42.104Z,100.00
2022-12-25T03:00:07.023Z,99.68
2022-12-25T03:02:27.888Z,99.81
2022-12-25T03:04:50.088Z,99.86
2022-12-25T03:07:23.412Z,100.00
2022-12-25T03:09:49.815Z,100.00
2022-12-25T03:11:58.963Z,100.00
2022-12-25T03:14:23.733Z,100.00
2022-12-25T03:16:43.830Z,100.00
2022-12-25T03:18:46.384Z,100.00
2022-12-25T03:21:07.056Z,100.00
2022-12-25T03:23:29.703Z,100.00
2022-12-25T03:25:50.494Z,97.13
2022-12-25T03:27:56.573Z,91.94
2022-12-25T03:30:30.896Z,92.52
2022-12-25T03:33:18.064Z,94.54
2022-12-25T03:35:47.902Z,95.17
2022-12-25T03:38:21.440Z,96.19
2022-12-25T03:40:56.056Z,96.18
2022-12-25T03:43:43.735Z,98.30
2022-12-25T03:46:02.130Z,98.49
2022-12-25T03:48:24.006Z,98.39
2022-12-25T03:50:59.755Z,98.56
2022-12-25T03:53:24.452Z,99.60
2022-12-25T03:55:45.460Z,100.00
2022-12-25T03:58:06.072Z,100.00
2022-12-25T04:00:27.141Z,100.00
2022-12-25T04:02:47.946Z,100.00
2022-12-25T04:05:08.134Z,99.72
2022-12-25T04:07:32.999Z,99.31
2022-12-25T04:09:53.379Z,99.03
2022-12-25T04:12:15.946Z,98.82
2022-12-25T04:14:36.351Z,98.71
2022-12-25T04:16:56.666Z,99.80
2022-12-25T04:19:16.669Z,99.48
2022-12-25T04:21:47.577Z,99.13
2022-12-25T04:24:08.043Z,99.29
2022-12-25T04:26:28.549Z,98.86
2022-12-25T04:28:48.956Z,99.15
2022-12-25T04:31:09.136Z,100.00
2022-12-25T04:33:29.598Z,100.00
2022-12-25T04:35:50.321Z,100.00
2022-12-25T04:37:52.588Z,100.00
2022-12-25T04:39:54.310Z,100.00
2022-12-25T04:41:56.054Z,100.00
2022-12-25T04:43:57.781Z,100.00
2022-12-25T04:46:01.309Z,100.00
2022-12-25T04:48:02.972Z,100.00
2022-12-25T04:50:05.149Z,100.00
2022-12-25T04:52:06.696Z,100.00
2022-12-25T04:54:08.256Z,100.00
2022-12-25T04:56:10.083Z,100.00
2022-12-25T04:58:11.747Z,100.00
2022-12-25T05:01:59.004Z,97.34
2022-12-25T05:04:00.868Z,99.81
2022-12-25T05:06:04.544Z,94.01
2022-12-25T05:08:06.296Z,86.57
2022-12-25T05:10:08.641Z,82.78
2022-12-25T05:12:11.266Z,78.93
2022-12-25T05:14:12.814Z,74.25
2022-12-25T05:16:18.129Z,74.35
2022-12-25T05:18:19.747Z,71.73
2022-12-25T05:20:21.280Z,76.34
2022-12-25T05:22:22.840Z,73.53
2022-12-25T05:24:28.431Z,73.65
2022-12-25T05:26:30.028Z,68.67
2022-12-25T05:28:31.587Z,67.46
2022-12-25T05:30:34.344Z,64.50
2022-12-25T05:32:36.271Z,64.52
2022-12-25T05:34:38.228Z,61.40
2022-12-25T05:36:41.278Z,59.98
2022-12-25T05:38:43.160Z,62.21
2022-12-25T05:40:45.415Z,64.66
2022-12-25T05:42:46.959Z,66.71
2022-12-25T05:44:48.692Z,65.06
2022-12-25T05:46:50.496Z,68.07
2022-12-25T05:48:52.483Z,65.27
2022-12-25T05:50:54.056Z,64.43
2022-12-25T05:52:55.757Z,63.18
2022-12-25T05:54:57.603Z,61.15
2022-12-25T05:56:59.395Z,60.78
2022-12-25T05:59:01.072Z,58.44
2022-12-25T06:01:03.094Z,59.32
2022-12-25T06:03:04.892Z,61.45
2022-12-25T06:05:07.650Z,65.55
2022-12-25T06:07:09.524Z,68.33
2022-12-25T06:09:13.321Z,71.26
2022-12-25T06:11:15.624Z,71.06
2022-12-25T06:13:17.270Z,72.63
2022-12-25T06:15:19.131Z,71.49
2022-12-25T06:17:20.789Z,71.15
2022-12-25T06:19:22.912Z,70.38
2022-12-25T06:21:24.672Z,71.23
2022-12-25T06:23:26.290Z,72.42
2022-12-25T06:25:27.963Z,71.49
2022-12-25T06:27:30.194Z,69.92
2022-12-25T06:29:31.770Z,69.86
2022-12-25T06:31:33.580Z,69.56
2022-12-25T06:33:36.100Z,69.28
2022-12-25T06:35:40.132Z,66.48
2022-12-25T06:37:41.966Z,68.42
2022-12-25T06:39:43.990Z,66.28
2022-12-25T06:41:45.536Z,72.40
2022-12-25T06:43:49.376Z,67.60
2022-12-25T06:45:53.015Z,68.30
2022-12-25T06:47:55.029Z,68.68
2022-12-25T06:49:56.704Z,70.80
2022-12-25T06:51:58.249Z,71.32
2022-12-25T06:54:03.615Z,73.32
2022-12-25T06:56:15.595Z,77.45
2022-12-25T06:58:17.259Z,81.85
2022-12-25T07:00:19.352Z,82.34
2022-12-25T07:02:23.015Z,83.25
2022-12-25T07:04:32.086Z,87.56
2022-12-25T07:06:34.627Z,87.88
2022-12-25T07:08:36.186Z,87.45
2022-12-25T07:10:38.053Z,88.34
2022-12-25T07:12:39.614Z,89.28
2022-12-25T07:14:41.242Z,90.03
2022-12-25T07:16:43.376Z,89.54
2022-12-25T07:18:45.041Z,89.92
2022-12-25T07:20:46.875Z,88.35
2022-12-25T07:22:48.405Z,88.96
2022-12-25T07:24:50.018Z,88.70
2022-12-25T07:26:53.247Z,87.99
2022-12-25T07:28:56.023Z,88.01
2022-12-25T07:31:04.987Z,86.63
2022-12-25T07:33:06.618Z,87.21
2022-12-25T07:35:08.658Z,87.09
2022-12-25T07:37:10.666Z,88.25
2022-12-25T07:39:12.467Z,86.02
2022-12-25T07:41:14.097Z,87.22
2022-12-25T07:43:15.803Z,86.00
2022-12-25T07:45:17.513Z,85.23
2022-12-25T07:47:19.105Z,87.22
2022-12-25T07:49:20.744Z,84.79
2022-12-25T07:51:23.399Z,87.23
2022-12-25T07:53:25.404Z,85.41
2022-12-25T07:55:26.959Z,85.23
2022-12-25T07:57:29.635Z,84.99
2022-12-25T07:59:31.489Z,84.67
2022-12-25T08:01:33.383Z,84.73
2022-12-25T08:03:36.072Z,85.11
2022-12-25T08:05:37.859Z,91.79
2022-12-25T08:07:39.479Z,85.66
2022-12-25T08:09:41.399Z,86.63
2022-12-25T08:11:47.190Z,87.78
2022-12-25T08:13:48.853Z,91.39
2022-12-25T08:15:50.625Z,91.44
2022-12-25T08:17:52.704Z,90.68
2022-12-25T08:19:54.278Z,90.34
2022-12-25T08:21:56.111Z,90.88
2022-12-25T08:23:58.085Z,90.81
2022-12-25T08:26:04.961Z,89.82
2022-12-25T08:28:07.341Z,90.82
2022-12-25T08:30:09.282Z,91.81
2022-12-25T08:32:10.936Z,91.19
2022-12-25T08:34:13.044Z,93.81
2022-12-25T08:36:16.862Z,95.70
2022-12-25T08:38:18.476Z,95.13
2022-12-25T08:40:20.010Z,94.22
2022-12-25T08:42:21.975Z,94.65
2022-12-25T08:44:23.492Z,95.57
2022-12-25T08:46:25.299Z,95.46
2022-12-25T08:48:27.168Z,94.68
2022-12-25T08:50:28.742Z,95.11
2022-12-25T08:52:30.396Z,94.30
2022-12-25T08:54:33.704Z,94.24
2022-12-25T08:56:36.533Z,95.17
2022-12-25T08:58:38.136Z,95.23
2022-12-25T09:00:40.874Z,94.68
2022-12-25T09:02:42.920Z,97.57
2022-12-25T09:04:46.775Z,92.74
2022-12-25T09:06:48.553Z,92.48
2022-12-25T09:08:50.327Z,92.44
2022-12-25T09:10:51.993Z,94.08
2022-12-25T09:12:53.718Z,94.01
2022-12-25T09:14:55.660Z,93.56
2022-12-25T09:16:57.384Z,93.96
2022-12-25T09:18:59.109Z,94.40
2022-12-25T09:21:03.679Z,93.90
2022-12-25T09:23:11.695Z,94.19
2022-12-25T09:25:15.335Z,94.34
2022-12-25T09:27:17.140Z,94.91
2022-12-25T09:29:18.940Z,100.00
2022-12-25T09:31:23.034Z,99.58
2022-12-25T09:33:25.219Z,83.21
2022-12-25T09:35:27.103Z,83.75
2022-12-25T09:37:29.214Z,87.43
2022-12-25T09:39:30.889Z,88.02
2022-12-25T09:42:00.317Z,89.40
2022-12-25T09:44:18.943Z,90.28
2022-12-25T09:46:25.126Z,91.12
2022-12-25T09:48:30.700Z,91.84
2022-12-25T09:50:44.075Z,94.36
2022-12-25T09:53:02.467Z,95.01
2022-12-25T09:55:20.615Z,94.76
2022-12-25T09:57:25.326Z,94.63
2022-12-25T09:59:27.338Z,95.37
2022-12-25T10:01:40.503Z,95.55
2022-12-25T10:04:05.780Z,94.66
2022-12-25T10:06:22.412Z,94.85
2022-12-25T10:08:42.097Z,95.28
2022-12-25T10:10:50.201Z,95.74
2022-12-25T10:13:22.526Z,95.87
2022-12-25T10:15:39.210Z,96.24
2022-12-25T10:18:03.403Z,96.48
2022-12-25T10:20:22.080Z,96.15
2022-12-25T10:22:43.989Z,96.02
2022-12-25T10:24:50.834Z,96.89
2022-12-25T10:26:55.562Z,97.69
2022-12-25T10:29:05.755Z,98.57
2022-12-25T10:31:20.097Z,98.14
2022-12-25T10:33:22.050Z,97.95
2022-12-25T10:35:27.225Z,97.97
2022-12-25T10:37:28.797Z,98.40
2022-12-25T10:39:30.704Z,98.14
2022-12-25T10:41:53.792Z,97.88
2022-12-25T10:43:56.894Z,97.87
2022-12-25T10:45:59.303Z,98.50
2022-12-25T10:48:07.734Z,98.58
2022-12-25T10:50:22.953Z,97.90
2022-12-25T10:52:28.652Z,98.19
2022-12-25T10:54:31.420Z,98.18
2022-12-25T10:56:33.087Z,98.23
2022-12-25T10:58:34.652Z,97.71
2022-12-25T11:00:36.285Z,97.49
2022-12-25T11:02:40.717Z,97.35
2022-12-25T11:04:43.161Z,97.37
2022-12-25T11:06:44.721Z,97.71
2022-12-25T11:08:51.478Z,97.38
2022-12-25T11:10:59.388Z,97.55
2022-12-25T11:13:02.456Z,96.59
2022-12-25T11:15:26.337Z,96.08
2022-12-25T11:17:28.440Z,95.58
2022-12-25T11:19:32.264Z,96.27
2022-12-25T11:21:36.924Z,97.45
2022-12-25T11:23:45.177Z,97.80
2022-12-25T11:26:04.867Z,97.39
2022-12-25T11:28:07.089Z,96.88
2022-12-25T11:30:16.204Z,97.09
2022-12-25T11:32:41.633Z,96.83
2022-12-25T11:34:45.848Z,97.21
2022-12-25T11:36:49.310Z,97.39
2022-12-25T11:38:51.531Z,96.79
2022-12-25T11:40:58.438Z,96.51
2022-12-25T11:43:31.308Z,97.19
2022-12-25T11:45:40.704Z,98.13
2022-12-25T11:47:57.386Z,99.70
2022-12-25T11:50:23.380Z,99.78
2022-12-25T11:52:31.688Z,100.00
2022-12-25T11:54:45.245Z,99.96
2022-12-25T11:56:46.958Z,99.67
2022-12-25T11:58:55.260Z,98.94
2022-12-25T12:00:59.521Z,98.98
2022-12-25T12:03:06.656Z,98.59
2022-12-25T12:05:16.444Z,99.05
2022-12-25T12:07:29.072Z,98.95
2022-12-25T12:09:43.113Z,99.25
2022-12-25T12:11:58.336Z,99.12
2022-12-25T12:14:18.128Z,98.29
2022-12-25T12:16:19.865Z,99.20
2022-12-25T12:18:22.999Z,98.40
2022-12-25T12:20:30.798Z,98.32
2022-12-25T12:22:32.556Z,97.89
2022-12-25T12:24:41.071Z,97.71
2022-12-25T12:26:45.350Z,97.80
2022-12-25T12:28:48.535Z,97.73
2022-12-25T12:31:05.217Z,98.11
2022-12-25T12:33:08.089Z,98.19
2022-12-25T12:35:17.851Z,98.29
2022-12-25T12:37:31.677Z,98.30
2022-12-25T12:39:39.254Z,97.88
2022-12-25T12:41:47.411Z,97.61
2022-12-25T12:43:58.776Z,97.00
2022-12-25T12:46:30.666Z,97.25
2022-12-25T12:48:40.273Z,96.96
2022-12-25T12:50:42.877Z,97.07
2022-12-25T12:52:44.428Z,96.54
2022-12-25T12:54:58.949Z,95.96
2022-12-25T12:57:25.134Z,96.53
2022-12-25T12:59:40.661Z,97.07
2022-12-25T13:02:06.415Z,96.57
2022-12-25T13:04:32.220Z,96.00
2022-12-25T13:06:38.353Z,95.31
2022-12-25T13:08:40.071Z,95.28
2022-12-25T13:10:48.626Z,94.45
2022-12-25T13:12:52.372Z,95.28
2022-12-25T13:14:54.149Z,95.01
2022-12-25T13:16:55.964Z,95.05
2022-12-25T13:18:58.764Z,94.32
2022-12-25T13:21:04.863Z,93.81
2022-12-25T13:23:28.012Z,92.78
2022-12-25T13:25:29.646Z,92.92
2022-12-25T13:27:33.046Z,92.82
2022-12-25T13:29:38.526Z,92.15
2022-12-25T13:31:40.908Z,91.83
2022-12-25T13:33:51.144Z,91.80
2022-12-25T13:35:53.766Z,91.41
2022-12-25T13:37:56.510Z,90.90
2022-12-25T13:40:06.307Z,91.39
2022-12-25T13:42:10.667Z,91.92
2022-12-25T13:44:24.235Z,91.62
2022-12-25T13:46:27.770Z,91.63
2022-12-25T13:48:31.322Z,92.06
2022-12-25T13:50:34.723Z,92.31
2022-12-25T13:52:38.048Z,92.47
2022-12-25T13:54:40.090Z,92.55
2022-12-25T13:56:51.089Z,94.29
2022-12-25T13:58:52.736Z,92.67
2022-12-25T14:00:57.523Z,92.51
2022-12-25T14:02:59.744Z,92.98
2022-12-25T14:05:01.917Z,93.20
2022-12-25T14:07:11.739Z,94.11
2022-12-25T14:09:14.272Z,95.01
2022-12-25T14:11:17.239Z,95.42
2022-12-25T14:13:22.375Z,95.76
2022-12-25T14:15:28.402Z,96.56
2022-12-25T14:17:30.408Z,96.36
2022-12-25T14:19:34.079Z,96.00
2022-12-25T14:21:49.045Z,97.32
2022-12-25T14:23:51.266Z,98.43
2022-12-25T14:25:53.087Z,99.54
2022-12-25T14:27:55.285Z,99.68
2022-12-25T14:29:59.055Z,99.66
2022-12-25T14:32:04.531Z,98.68
2022-12-25T14:34:20.660Z,98.33
2022-12-25T14:36:22.276Z,98.21
2022-12-25T14:38:29.272Z,97.86
2022-12-25T14:40:32.339Z,97.55
2022-12-25T14:42:37.076Z,96.69
2022-12-25T14:44:40.944Z,96.72
2022-12-25T14:46:42.681Z,97.88
2022-12-25T14:48:44.428Z,97.48
2022-12-25T14:51:08.912Z,97.19
2022-12-25T14:53:24.705Z,97.19
2022-12-25T14:55:30.771Z,96.84
2022-12-25T14:57:36.815Z,97.45
2022-12-25T14:59:38.939Z,97.26
2022-12-25T15:01:42.072Z,97.45
2022-12-25T15:03:43.993Z,97.80
2022-12-25T15:05:45.789Z,97.61
2022-12-25T15:07:58.467Z,97.19
2022-12-25T15:10:36.506Z,96.79
2022-12-25T15:12:22.548Z,97.49
2022-12-25T15:14:25.819Z,97.37
2022-12-25T15:17:00.573Z,97.03
2022-12-25T15:19:02.526Z,96.76
2022-12-25T15:21:05.003Z,96.99
2022-12-25T15:23:25.064Z,96.79
2022-12-25T15:25:28.901Z,96.73
2022-12-25T15:27:30.545Z,96.93
2022-12-25T15:30:08.025Z,96.39
2022-12-25T15:31:54.108Z,96.37
2022-12-25T15:33:58.243Z,95.90
2022-12-25T15:35:59.973Z,95.79
2022-12-25T15:38:01.676Z,95.82
2022-12-25T15:40:06.352Z,95.94
2022-12-25T15:42:16.920Z,95.52
2022-12-25T15:44:18.614Z,95.34
2022-12-25T15:46:24.424Z,95.80
2022-12-25T15:48:26.078Z,95.45
2022-12-25T15:50:27.768Z,96.04
2022-12-25T15:52:29.358Z,96.11
2022-12-25T15:54:32.329Z,97.30
2022-12-25T15:56:42.318Z,97.01
2022-12-25T15:58:43.932Z,96.30
2022-12-25T16:00:45.475Z,96.47
2022-12-25T16:02:47.291Z,97.26
2022-12-25T16:04:50.876Z,96.61
2022-12-25T16:06:53.020Z,97.51
2022-12-25T16:08:54.583Z,97.29
2022-12-25T16:10:56.187Z,97.77
2022-12-25T16:12:58.094Z,97.16
2022-12-25T16:14:59.787Z,97.56
2022-12-25T16:17:01.380Z,98.62
2022-12-25T16:19:03.622Z,98.11
2022-12-25T16:21:05.690Z,98.04
2022-12-25T16:23:07.470Z,98.60
2022-12-25T16:25:14.587Z,99.94
2022-12-25T16:27:16.113Z,100.00
2022-12-25T16:29:17.654Z,100.00
2022-12-25T16:31:19.453Z,99.20
2022-12-25T16:33:21.063Z,99.76
2022-12-25T16:35:22.674Z,99.42
2022-12-25T16:37:24.653Z,98.17
2022-12-25T16:39:26.190Z,98.47
2022-12-25T16:41:28.346Z,98.24
2022-12-25T16:43:29.960Z,98.23
2022-12-25T16:45:31.628Z,97.86
2022-12-25T16:47:33.832Z,97.43
2022-12-25T16:49:35.606Z,97.32
2022-12-25T16:51:37.436Z,97.08
2022-12-25T16:53:39.226Z,97.19
2022-12-25T16:55:41.198Z,97.28
2022-12-25T16:57:42.783Z,97.32
2022-12-25T16:59:44.326Z,97.46
2022-12-25T17:01:46.384Z,99.65
2022-12-25T17:03:49.037Z,100.00
2022-12-25T17:05:50.671Z,100.00
2022-12-25T17:07:52.291Z,100.00
2022-12-25T17:09:53.813Z,100.00
2022-12-25T17:11:55.351Z,99.50
2022-12-25T17:14:02.593Z,99.07
2022-12-25T17:16:18.583Z,98.66
2022-12-25T17:18:22.013Z,98.46
2022-12-25T17:20:23.651Z,98.34
2022-12-25T17:22:25.264Z,97.70
2022-12-25T17:24:27.702Z,97.60
2022-12-25T17:26:29.250Z,97.65
2022-12-25T17:28:31.322Z,97.68
2022-12-25T17:30:33.731Z,98.25
2022-12-25T17:32:35.583Z,98.56
2022-12-25T17:34:38.199Z,98.05
2022-12-25T17:36:39.900Z,98.67
2022-12-25T17:38:41.757Z,98.28
2022-12-25T17:40:43.366Z,97.50
2022-12-25T17:42:45.756Z,98.04
2022-12-25T17:44:47.363Z,97.60
2022-12-25T17:46:50.222Z,97.61
2022-12-25T17:48:54.929Z,96.58
2022-12-25T17:51:01.482Z,97.00
2022-12-25T17:53:05.149Z,97.53
2022-12-25T17:55:07.276Z,97.79
2022-12-25T17:57:08.962Z,97.59
2022-12-25T17:59:17.974Z,98.09
2022-12-25T18:01:20.471Z,98.02
2022-12-25T18:03:22.565Z,96.71
2022-12-25T18:05:24.359Z,97.98
2022-12-25T18:07:26.032Z,98.04
2022-12-25T18:09:27.860Z,98.18
2022-12-25T18:11:33.120Z,98.83
2022-12-25T18:13:35.113Z,99.72
2022-12-25T18:15:39.388Z,100.00
2022-12-25T18:17:42.150Z,99.76
2022-12-25T18:19:43.758Z,100.00
2022-12-25T18:21:45.724Z,99.91
2022-12-25T18:23:47.800Z,99.58
2022-12-25T18:25:49.637Z,99.68
2022-12-25T18:27:52.823Z,99.55
2022-12-25T18:29:54.395Z,99.33
2022-12-25T18:31:56.009Z,99.58
2022-12-25T18:33:59.214Z,99.87
2022-12-25T18:36:01.454Z,99.69
2022-12-25T18:38:03.668Z,99.70
2022-12-25T18:40:05.977Z,99.51
2022-12-25T18:42:26.085Z,99.18
2022-12-25T18:44:29.413Z,99.21
2022-12-25T18:46:31.146Z,98.59
2022-12-25T18:48:34.146Z,98.89
2022-12-25T18:50:39.184Z,99.47
2022-12-25T18:52:48.031Z,98.87
2022-12-25T18:54:52.934Z,100.00
2022-12-25T18:56:54.523Z,100.00
2022-12-25T18:58:59.484Z,100.00
2022-12-25T19:01:01.212Z,100.00
2022-12-25T19:03:03.448Z,100.00
2022-12-25T19:05:05.944Z,100.00
2022-12-25T19:07:07.467Z,100.00
2022-12-25T19:09:12.167Z,100.00
2022-12-25T19:11:13.881Z,100.00
2022-12-25T19:13:15.420Z,98.71
2022-12-25T19:15:16.997Z,98.05
2022-12-25T19:17:19.098Z,97.68
2022-12-25T19:19:21.411Z,97.43
2022-12-25T19:21:23.611Z,96.96
2022-12-25T19:23:25.161Z,96.78
2022-12-25T19:25:27.733Z,95.58
2022-12-25T19:27:29.399Z,95.30
2022-12-25T19:29:32.082Z,94.98
2022-12-25T19:31:34.696Z,94.90
2022-12-25T19:33:38.296Z,94.42
2022-12-25T19:35:41.410Z,93.27
2022-12-25T19:37:42.991Z,93.18
2022-12-25T19:39:46.733Z,93.10
2022-12-25T19:41:48.709Z,92.64
2022-12-25T19:43:50.544Z,91.97
2022-12-25T19:45:52.124Z,91.81
2022-12-25T19:47:53.990Z,91.81
2022-12-25T19:50:00.890Z,91.49
2022-12-25T19:52:04.381Z,89.89
2022-12-25T19:54:07.019Z,90.22
2022-12-25T19:56:08.608Z,90.43
2022-12-25T19:58:10.513Z,90.14
2022-12-25T20:00:12.371Z,89.89
2022-12-25T20:02:16.893Z,89.70
2022-12-25T20:04:18.935Z,89.25
2022-12-25T20:06:30.691Z,89.78
2022-12-25T20:08:32.927Z,89.02
2022-12-25T20:10:34.566Z,88.38
2022-12-25T20:12:36.400Z,87.89
2022-12-25T20:14:38.037Z,87.75
2022-12-25T20:16:40.415Z,87.61
2022-12-25T20:18:42.548Z,87.88
2022-12-25T20:20:45.086Z,87.66
2022-12-25T20:22:46.767Z,86.95
2022-12-25T20:24:49.157Z,86.84
2022-12-25T20:26:56.985Z,86.46
2022-12-25T20:29:00.710Z,86.85
2022-12-25T20:31:16.970Z,86.59
2022-12-25T20:33:18.699Z,86.53
2022-12-25T20:35:20.286Z,86.04
2022-12-25T20:37:21.937Z,86.31
2022-12-25T20:39:23.508Z,86.17
2022-12-25T20:41:27.293Z,86.55
2022-12-25T20:43:29.447Z,86.22
2022-12-25T20:45:31.213Z,86.17
2022-12-25T20:47:35.029Z,86.31
2022-12-25T20:49:36.721Z,86.37
2022-12-25T20:51:38.780Z,87.00
2022-12-25T20:53:41.331Z,85.95
2022-12-25T20:55:50.068Z,86.14
2022-12-25T20:57:51.856Z,86.19
2022-12-25T20:59:54.394Z,86.39
2022-12-25T21:01:56.580Z,86.19
2022-12-25T21:03:59.423Z,86.61
2022-12-25T21:06:02.006Z,85.08
2022-12-25T21:08:03.493Z,85.39
2022-12-25T21:10:05.741Z,85.92
2022-12-25T21:12:08.649Z,86.28
2022-12-25T21:14:10.201Z,85.71
2022-12-25T21:16:19.001Z,85.54
2022-12-25T21:18:22.484Z,86.00
2022-12-25T21:20:24.129Z,85.51
2022-12-25T21:22:26.684Z,85.47
2022-12-25T21:24:28.405Z,84.97
2022-12-25T21:26:32.185Z,84.71
2022-12-25T21:28:34.176Z,85.46
2022-12-25T21:30:36.641Z,85.02
2022-12-25T21:33:00.435Z,85.05
2022-12-25T21:35:02.183Z,85.15
2022-12-25T21:37:07.151Z,84.10
2022-12-25T21:39:11.386Z,84.68
2022-12-25T21:41:14.762Z,84.21
2022-12-25T21:43:16.627Z,84.62
2022-12-25T21:45:18.164Z,84.40
2022-12-25T21:47:19.863Z,84.32
2022-12-25T21:49:40.195Z,84.32
2022-12-25T21:52:00.379Z,84.18
2022-12-25T21:54:02.783Z,84.61
2022-12-25T21:56:05.737Z,84.72
2022-12-25T21:58:07.318Z,85.16
2022-12-25T22:00:09.617Z,85.07
2022-12-25T22:02:11.960Z,85.27
2022-12-25T22:04:15.274Z,84.75
2022-12-25T22:06:35.306Z,84.31
2022-12-25T22:08:37.069Z,84.87
2022-12-25T22:10:38.666Z,85.08
2022-12-25T22:12:59.389Z,85.01
2022-12-25T22:15:06.525Z,85.64
2022-12-25T22:17:28.265Z,85.54
2022-12-25T22:19:45.351Z,85.33
2022-12-25T22:21:47.563Z,85.32
2022-12-25T22:23:49.297Z,84.36
2022-12-25T22:25:50.894Z,84.73
2022-12-25T22:27:53.242Z,85.50
2022-12-25T22:29:54.785Z,84.63
2022-12-25T22:31:56.342Z,85.37
2022-12-25T22:33:58.298Z,85.09
2022-12-25T22:36:04.593Z,85.36
2022-12-25T22:38:07.214Z,84.56
2022-12-25T22:40:11.575Z,84.00
2022-12-25T22:42:13.331Z,84.45
2022-12-25T22:44:17.587Z,84.71
2022-12-25T22:46:20.111Z,85.14
2022-12-25T22:48:21.735Z,85.00
2022-12-25T22:50:24.542Z,84.83
2022-12-25T22:52:27.255Z,85.10
2022-12-25T22:54:31.516Z,85.25
2022-12-25T22:56:33.124Z,84.64
2022-12-25T22:58:35.150Z,84.67
2022-12-25T23:00:40.939Z,84.83
2022-12-25T23:02:47.951Z,84.55
2022-12-25T23:04:49.744Z,84.15
2022-12-25T23:06:51.895Z,84.68
2022-12-25T23:08:53.734Z,84.83
2022-12-25T23:10:55.613Z,83.83
2022-12-25T23:13:15.752Z,83.98
2022-12-25T23:15:17.297Z,83.83
2022-12-25T23:17:37.652Z,84.45
2022-12-25T23:19:57.713Z,83.79
2022-12-25T23:22:28.694Z,83.36
2022-12-25T23:24:49.603Z,83.75
2022-12-25T23:26:52.636Z,83.73
2022-12-25T23:29:13.478Z,84.69
2022-12-25T23:31:15.368Z,83.92
2022-12-25T23:33:17.027Z,83.26
2022-12-25T23:35:18.736Z,83.01
2022-12-25T23:37:20.722Z,83.19
2022-12-25T23:39:22.500Z,84.04
2022-12-25T23:41:24.144Z,83.74
2022-12-25T23:43:25.707Z,83.70
2022-12-25T23:45:27.509Z,84.71
2022-12-25T23:47:29.278Z,83.59
2022-12-25T23:49:30.925Z,83.55
2022-12-25T23:51:35.145Z,83.68
2022-12-25T23:53:36.832Z,83.80
2022-12-25T23:55:38.616Z,84.22
2022-12-25T23:57:40.184Z,83.95
2022-12-25T23:59:41.887Z,83.67
